createdAt,value
2022-09-15T00:02:33.458Z,79.02
2022-09-15T00:06:18.870Z,79.44
2022-09-15T00:10:01.631Z,79.96
2022-09-15T00:13:45.156Z,80.63
2022-09-15T00:17:28.047Z,79.88
2022-09-15T00:21:14.886Z,80.38
2022-09-15T00:25:00.452Z,80.39
2022-09-15T00:28:43.662Z,80.82
2022-09-15T00:32:26.511Z,80.76
2022-09-15T00:36:11.674Z,80.98
2022-09-15T00:39:55.718Z,81.75
2022-09-15T00:43:48.357Z,82.20
2022-09-15T00:47:33.784Z,81.39
2022-09-15T00:51:19.720Z,81.49
2022-09-15T00:55:06.962Z,81.85
2022-09-15T00:58:53.008Z,81.89
2022-09-15T01:02:37.329Z,82.62
2022-09-15T01:06:23.748Z,82.62
2022-09-15T01:10:11.685Z,82.45
2022-09-15T01:13:54.330Z,82.10
2022-09-15T01:17:44.202Z,82.49
2022-09-15T01:21:36.622Z,81.50
2022-09-15T01:25:35.221Z,81.52
2022-09-15T01:30:01.262Z,80.65
2022-09-15T01:33:48.561Z,80.27
2022-09-15T01:37:34.766Z,79.26
2022-09-15T01:41:19.203Z,78.46
2022-09-15T01:45:08.245Z,77.62
2022-09-15T01:48:53.781Z,77.13
2022-09-15T01:52:36.840Z,76.00
2022-09-15T01:56:19.630Z,75.74
2022-09-15T02:00:05.016Z,75.12
2022-09-15T02:03:55.556Z,75.12
2022-09-15T02:07:45.430Z,74.67
2022-09-15T02:11:29.026Z,74.07
2022-09-15T02:15:15.062Z,73.33
2022-09-15T02:19:10.177Z,73.57
2022-09-15T02:22:55.655Z,72.71
2022-09-15T02:26:39.830Z,73.28
2022-09-15T02:30:24.166Z,73.43
2022-09-15T02:34:12.059Z,73.73
2022-09-15T02:37:59.800Z,73.22
2022-09-15T02:41:42.674Z,73.18
2022-09-15T02:45:27.006Z,73.63
2022-09-15T02:49:09.786Z,73.87
2022-09-15T02:52:57.495Z,74.16
2022-09-15T02:56:41.068Z,73.77
2022-09-15T03:00:26.329Z,73.21
2022-09-15T03:04:09.286Z,73.07
2022-09-15T03:07:52.654Z,72.74
2022-09-15T03:11:36.249Z,73.08
2022-09-15T03:15:21.248Z,73.36
2022-09-15T03:19:06.284Z,73.26
2022-09-15T03:22:49.557Z,73.76
2022-09-15T03:26:32.281Z,73.79
2022-09-15T03:30:15.239Z,73.78
2022-09-15T03:33:58.211Z,73.56
2022-09-15T03:37:42.270Z,72.35
2022-09-15T03:41:25.499Z,72.92
2022-09-15T03:45:08.987Z,72.59
2022-09-15T03:48:51.645Z,72.27
2022-09-15T03:52:34.374Z,72.45
2022-09-15T03:56:24.052Z,72.71
2022-09-15T04:00:08.260Z,71.57
2022-09-15T04:03:51.665Z,71.37
2022-09-15T04:07:34.417Z,70.17
2022-09-15T04:11:19.019Z,70.76
2022-09-15T04:15:03.968Z,70.12
2022-09-15T04:18:46.891Z,69.67
2022-09-15T04:22:32.049Z,70.20
2022-09-15T04:26:20.065Z,70.31
2022-09-15T04:30:08.673Z,69.94
2022-09-15T04:33:53.513Z,70.33
2022-09-15T04:37:39.307Z,70.26
2022-09-15T04:41:22.460Z,69.41
2022-09-15T04:45:08.241Z,68.77
2022-09-15T04:48:51.860Z,68.74
2022-09-15T04:52:34.578Z,68.75
2022-09-15T04:56:19.861Z,67.84
2022-09-15T05:00:04.728Z,68.35
2022-09-15T05:03:49.109Z,67.98
2022-09-15T05:07:31.945Z,67.00
2022-09-15T05:11:14.752Z,67.85
2022-09-15T05:14:57.691Z,67.77
2022-09-15T05:18:41.318Z,67.46
2022-09-15T05:22:25.392Z,67.38
2022-09-15T05:26:10.138Z,67.65
2022-09-15T05:30:04.442Z,68.14
2022-09-15T05:33:56.102Z,67.54
2022-09-15T05:37:40.199Z,67.73
2022-09-15T05:41:23.224Z,67.59
2022-09-15T05:45:06.662Z,68.00
2022-09-15T05:48:49.685Z,67.95
2022-09-15T05:52:32.454Z,67.34
2022-09-15T05:56:17.937Z,67.31
2022-09-15T06:00:00.625Z,67.82
2022-09-15T06:03:44.457Z,67.38
2022-09-15T06:07:27.137Z,67.58
2022-09-15T06:11:15.109Z,67.25
2022-09-15T06:14:59.791Z,67.50
2022-09-15T06:18:42.983Z,67.43
2022-09-15T06:22:25.726Z,67.13
2022-09-15T06:26:10.633Z,67.56
2022-09-15T06:29:53.526Z,67.10
2022-09-15T06:33:37.617Z,66.91
2022-09-15T06:37:20.298Z,66.88
2022-09-15T06:41:03.173Z,67.19
2022-09-15T06:44:45.937Z,67.11
2022-09-15T06:48:28.636Z,69.66
2022-09-15T06:52:12.777Z,70.61
2022-09-15T06:55:55.402Z,72.64
2022-09-15T06:59:38.135Z,75.28
2022-09-15T07:03:21.077Z,77.88
2022-09-15T07:07:03.861Z,78.87
2022-09-15T07:10:48.389Z,78.61
2022-09-15T07:14:31.383Z,77.92
2022-09-15T07:18:14.285Z,77.98
2022-09-15T07:21:57.014Z,79.19
2022-09-15T07:25:44.111Z,79.44
2022-09-15T07:29:28.310Z,79.15
2022-09-15T07:33:13.108Z,80.05
2022-09-15T07:36:55.755Z,79.14
2022-09-15T07:40:39.120Z,77.66
2022-09-15T07:44:21.850Z,75.91
2022-09-15T07:48:06.405Z,73.54
2022-09-15T07:51:49.111Z,73.62
2022-09-15T07:55:32.845Z,71.88
2022-09-15T07:59:15.605Z,71.29
2022-09-15T08:02:58.309Z,71.02
2022-09-15T08:06:42.336Z,70.65
2022-09-15T08:10:25.856Z,69.74
2022-09-15T08:14:08.539Z,69.19
2022-09-15T08:17:51.232Z,69.85
2022-09-15T08:21:33.940Z,68.54
2022-09-15T08:25:18.094Z,67.92
2022-09-15T08:29:00.797Z,68.93
2022-09-15T08:32:43.473Z,68.41
2022-09-15T08:36:27.904Z,68.19
2022-09-15T08:40:19.046Z,67.23
2022-09-15T08:44:05.670Z,67.88
2022-09-15T08:47:49.203Z,67.62
2022-09-15T08:51:36.149Z,65.75
2022-09-15T08:55:30.157Z,64.63
2022-09-15T08:59:15.152Z,64.78
2022-09-15T09:03:07.737Z,64.65
2022-09-15T09:06:58.253Z,63.37
2022-09-15T09:10:47.187Z,63.67
2022-09-15T09:14:37.536Z,63.42
2022-09-15T09:18:31.811Z,63.13
2022-09-15T09:22:17.151Z,63.44
2022-09-15T09:26:05.481Z,63.57
2022-09-15T09:29:52.973Z,62.99
2022-09-15T09:33:46.652Z,62.63
2022-09-15T09:37:34.151Z,62.86
2022-09-15T09:41:19.440Z,62.45
2022-09-15T09:45:02.083Z,63.17
2022-09-15T09:48:47.708Z,62.92
2022-09-15T09:52:35.057Z,62.77
2022-09-15T09:56:24.251Z,62.61
2022-09-15T10:00:13.690Z,62.92
2022-09-15T10:04:14.026Z,62.45
2022-09-15T10:08:03.356Z,62.24
2022-09-15T10:11:49.051Z,60.67
2022-09-15T10:15:34.067Z,60.89
2022-09-15T10:19:16.779Z,59.27
2022-09-15T10:23:08.714Z,58.49
2022-09-15T10:26:52.732Z,59.15
2022-09-15T10:30:35.969Z,57.62
2022-09-15T10:34:30.417Z,57.17
2022-09-15T10:38:15.919Z,56.83
2022-09-15T10:42:08.057Z,56.17
2022-09-15T10:45:56.697Z,57.12
2022-09-15T10:49:49.661Z,57.50
2022-09-15T10:54:08.159Z,57.16
2022-09-15T10:58:06.663Z,56.62
2022-09-15T11:02:02.570Z,56.96
2022-09-15T11:06:00.334Z,57.51
2022-09-15T11:09:45.312Z,56.92
2022-09-15T11:13:37.572Z,57.92
2022-09-15T11:17:28.453Z,56.42
2022-09-15T11:21:21.465Z,56.93
2022-09-15T11:25:12.633Z,57.14
2022-09-15T11:28:59.674Z,57.21
2022-09-15T11:32:45.596Z,56.17
2022-09-15T11:36:31.560Z,56.43
2022-09-15T11:40:17.401Z,57.29
2022-09-15T11:44:07.114Z,58.09
2022-09-15T11:47:52.810Z,57.16
2022-09-15T11:51:43.974Z,56.91
2022-09-15T11:55:32.433Z,55.81
2022-09-15T11:59:22.347Z,56.02
2022-09-15T12:03:13.456Z,57.64
2022-09-15T12:07:01.449Z,58.47
2022-09-15T12:10:47.641Z,58.08
2022-09-15T12:14:33.893Z,59.04
2022-09-15T12:18:37.719Z,58.24
2022-09-15T12:22:24.794Z,58.48
2022-09-15T12:26:17.479Z,59.01
2022-09-15T12:30:01.855Z,60.35
2022-09-15T12:33:45.778Z,61.20
2022-09-15T12:37:36.304Z,62.86
2022-09-15T12:41:20.213Z,63.94
2022-09-15T12:45:06.765Z,63.83
2022-09-15T12:48:49.841Z,64.13
2022-09-15T12:52:32.909Z,62.75
2022-09-15T12:56:24.364Z,60.93
2022-09-15T13:01:00.696Z,60.09
2022-09-15T13:04:53.775Z,59.67
2022-09-15T13:08:47.877Z,59.20
2022-09-15T13:12:33.141Z,58.42
2022-09-15T13:16:20.428Z,57.11
2022-09-15T13:20:09.605Z,55.27
2022-09-15T13:23:53.871Z,53.97
2022-09-15T13:27:38.620Z,55.01
2022-09-15T13:31:32.917Z,54.99
2022-09-15T13:35:38.761Z,54.49
2022-09-15T13:39:33.158Z,54.80
2022-09-15T13:43:46.870Z,54.02
2022-09-15T13:47:38.051Z,54.12
2022-09-15T13:51:28.159Z,53.94
2022-09-15T13:55:19.590Z,54.88
2022-09-15T13:59:09.603Z,55.93
2022-09-15T14:02:59.311Z,56.29
2022-09-15T14:06:44.006Z,56.08
2022-09-15T14:10:29.595Z,56.26
2022-09-15T14:14:33.179Z,56.57
2022-09-15T14:18:21.040Z,57.92
2022-09-15T14:22:22.113Z,59.39
2022-09-15T14:26:05.092Z,61.07
2022-09-15T14:29:50.261Z,62.99
2022-09-15T14:33:38.092Z,62.97
2022-09-15T14:37:23.903Z,63.41
2022-09-15T14:41:07.406Z,63.65
2022-09-15T14:48:54.517Z,64.65
2022-09-15T14:52:39.745Z,64.85
2022-09-15T14:56:24.999Z,69.06
2022-09-15T15:00:10.180Z,73.13
2022-09-15T15:03:57.644Z,75.89
2022-09-15T15:07:40.617Z,79.55
2022-09-15T15:11:23.832Z,82.45
2022-09-15T15:15:07.530Z,84.94
2022-09-15T15:18:51.425Z,86.40
2022-09-15T15:22:36.055Z,88.88
2022-09-15T15:26:26.755Z,90.04
2022-09-15T15:30:31.378Z,91.41
2022-09-15T15:34:24.836Z,95.05
2022-09-15T15:38:15.561Z,97.33
2022-09-15T15:42:01.706Z,99.50
2022-09-15T15:45:49.966Z,100.00
2022-09-15T15:49:33.206Z,100.00
2022-09-15T15:53:17.268Z,100.00
2022-09-15T15:57:05.846Z,100.00
2022-09-15T16:00:50.979Z,100.00
2022-09-15T16:04:33.706Z,100.00
2022-09-15T16:08:23.887Z,100.00
2022-09-15T16:12:07.041Z,100.00
2022-09-15T16:15:50.217Z,100.00
2022-09-15T16:19:32.907Z,100.00
2022-09-15T16:23:19.097Z,100.00
2022-09-15T16:27:04.424Z,100.00
2022-09-15T16:30:47.445Z,100.00
2022-09-15T16:34:30.099Z,100.00
2022-09-15T16:38:12.842Z,100.00
2022-09-15T16:41:56.891Z,93.94
2022-09-15T16:45:41.008Z,92.75
2022-09-15T16:49:23.991Z,92.70
2022-09-15T16:53:06.771Z,92.31
2022-09-15T16:56:49.442Z,96.44
2022-09-15T17:00:35.487Z,97.45
2022-09-15T17:04:19.096Z,99.29
2022-09-15T17:08:01.926Z,100.00
2022-09-15T17:11:44.761Z,100.00
2022-09-15T17:15:29.166Z,100.00
2022-09-15T17:19:13.229Z,100.00
2022-09-15T17:22:57.262Z,100.00
2022-09-15T17:26:39.905Z,100.00
2022-09-15T17:30:24.205Z,100.00
2022-09-15T17:34:07.592Z,100.00
2022-09-15T17:37:52.232Z,100.00
2022-09-15T17:41:35.915Z,100.00
2022-09-15T17:45:21.685Z,100.00
2022-09-15T17:49:04.444Z,100.00
2022-09-15T17:52:47.640Z,100.00
2022-09-15T17:56:31.772Z,100.00
2022-09-15T18:00:15.749Z,100.00
2022-09-15T18:03:58.437Z,100.00
2022-09-15T18:07:41.776Z,100.00
2022-09-15T18:11:24.718Z,98.84
2022-09-15T18:15:13.939Z,96.17
2022-09-15T18:18:56.618Z,95.98
2022-09-15T18:22:39.414Z,97.38
2022-09-15T18:26:26.366Z,96.66
2022-09-15T18:30:12.392Z,96.77
2022-09-15T18:33:55.090Z,98.28
2022-09-15T18:37:38.068Z,95.40
2022-09-15T18:41:20.782Z,94.50
2022-09-15T18:45:03.526Z,93.83
2022-09-15T18:48:48.017Z,92.80
2022-09-15T18:52:30.699Z,92.87
2022-09-15T18:56:14.176Z,95.02
2022-09-15T18:59:56.850Z,95.61
2022-09-15T19:03:44.067Z,96.72
2022-09-15T19:07:28.670Z,95.93
2022-09-15T19:11:11.383Z,95.61
2022-09-15T19:14:54.580Z,95.39
2022-09-15T19:18:37.974Z,95.19
2022-09-15T19:22:20.661Z,94.96
2022-09-15T19:26:05.364Z,94.86
2022-09-15T19:29:48.291Z,93.57
2022-09-15T19:33:31.067Z,95.09
2022-09-15T19:37:18.690Z,94.93
2022-09-15T19:41:08.428Z,93.63
2022-09-15T19:44:51.099Z,93.42
2022-09-15T19:48:38.521Z,92.05
2022-09-15T19:52:23.533Z,92.84
2022-09-15T19:56:08.251Z,91.24
2022-09-15T19:59:51.365Z,90.84
2022-09-15T20:03:34.178Z,91.18
2022-09-15T20:07:16.923Z,92.64
2022-09-15T20:10:59.711Z,91.01
2022-09-15T20:14:43.833Z,91.82
2022-09-15T20:18:27.330Z,90.96
2022-09-15T20:22:09.985Z,91.42
2022-09-15T20:25:57.041Z,90.64
2022-09-15T20:29:40.220Z,89.60
2022-09-15T20:33:26.309Z,88.67
2022-09-15T20:37:09.059Z,87.78
2022-09-15T20:40:55.600Z,87.92
2022-09-15T20:44:38.287Z,87.77
2022-09-15T20:48:20.966Z,87.86
2022-09-15T20:52:05.122Z,87.19
2022-09-15T20:55:51.049Z,85.65
2022-09-15T20:59:33.669Z,85.05
2022-09-15T21:03:16.908Z,85.58
2022-09-15T21:06:59.902Z,87.19
2022-09-15T21:10:46.876Z,87.31
2022-09-15T21:14:29.696Z,88.89
2022-09-15T21:18:15.343Z,90.08
2022-09-15T21:21:58.515Z,90.48
2022-09-15T21:25:41.164Z,90.45
2022-09-15T21:29:25.305Z,89.07
2022-09-15T21:33:08.262Z,88.97
2022-09-15T21:36:51.697Z,88.75
2022-09-15T21:40:34.997Z,89.23
2022-09-15T21:44:17.667Z,88.57
2022-09-15T21:48:01.722Z,88.36
2022-09-15T21:51:44.401Z,88.42
2022-09-15T21:55:27.084Z,89.33
2022-09-15T21:59:11.585Z,90.17
2022-09-15T22:02:54.297Z,89.34
2022-09-15T22:06:40.526Z,89.89
2022-09-15T22:10:23.581Z,89.88
2022-09-15T22:14:08.269Z,89.36
2022-09-15T22:17:51.300Z,89.07
2022-09-15T22:21:36.950Z,90.00
2022-09-15T22:25:22.024Z,90.51
2022-09-15T22:29:05.565Z,90.00
2022-09-15T22:32:48.304Z,90.24
2022-09-15T22:36:31.657Z,90.09
2022-09-15T22:40:14.405Z,89.79
2022-09-15T22:43:58.468Z,88.71
2022-09-15T22:47:41.134Z,88.55
2022-09-15T22:51:23.884Z,88.55
2022-09-15T22:55:07.436Z,88.69
2022-09-15T22:58:50.787Z,89.88
2022-09-15T23:02:35.426Z,88.28
2022-09-15T23:06:18.116Z,88.34
2022-09-15T23:10:00.798Z,89.48
2022-09-15T23:13:43.583Z,88.35
2022-09-15T23:17:27.391Z,89.53
2022-09-15T23:21:12.701Z,88.61
2022-09-15T23:24:55.500Z,89.79
2022-09-15T23:28:39.551Z,89.65
2022-09-15T23:32:22.249Z,89.89
2022-09-15T23:36:07.997Z,89.49
2022-09-15T23:39:52.288Z,89.68
2022-09-15T23:43:35.363Z,89.34
2022-09-15T23:47:18.056Z,90.79
2022-09-15T23:51:00.900Z,92.60
2022-09-15T23:54:43.853Z,92.79
2022-09-15T23:58:27.937Z,92.45
